Time;durP1;ratioP1;P1;durP2;ratioP2;P2;SDS_P1;SDS_P2;PMS_P1;PMS_P2;Temp;Humidity;BMP_temperature;BMP_pressure;BME280_temperature;BME280_humidity;BME280_pressure;Samples;Min_cycle;Max_cycle;Signal;HPM_P1;HPM_P2
2022/06/21 00:00:23;;;;;;;3.50;3.10;;;12.80;99.90;;;;;;4965952;28;20240;-64
2022/06/21 00:02:54;;;;;;;6.57;2.93;;;12.80;99.90;;;;;;4968122;28;20199;-65
2022/06/21 00:05:42;;;;;;;4.77;2.97;;;12.80;99.90;;;;;;4966512;28;20780;-65
2022/06/21 00:08:17;;;;;;;3.13;2.77;;;12.70;99.90;;;;;;4967690;28;20198;-64
2022/06/21 00:10:44;;;;;;;6.20;3.13;;;12.80;99.90;;;;;;4950569;28;20292;-65
2022/06/21 00:13:27;;;;;;;7.07;4.17;;;12.80;99.90;;;;;;4967486;28;20236;-65
2022/06/21 00:15:56;;;;;;;6.03;2.90;;;12.90;99.90;;;;;;4965628;28;20209;-65
2022/06/21 00:18:24;;;;;;;3.73;3.10;;;12.80;99.90;;;;;;4967109;28;20288;-65
2022/06/21 00:20:50;;;;;;;3.93;2.93;;;12.80;99.90;;;;;;4965859;28;20545;-65
2022/06/21 00:23:21;;;;;;;3.77;3.37;;;12.70;99.90;;;;;;4967470;28;20659;-65
2022/06/21 00:25:47;;;;;;;2.93;2.67;;;12.70;99.90;;;;;;4966013;28;20208;-65
2022/06/21 00:28:17;;;;;;;4.40;2.73;;;12.70;99.90;;;;;;4967462;28;20260;-65
2022/06/21 00:30:44;;;;;;;5.03;3.40;;;12.80;99.90;;;;;;4965425;28;20201;-65
2022/06/21 00:33:17;;;;;;;3.77;3.07;;;12.80;99.90;;;;;;4965406;28;20213;-64
2022/06/21 00:35:45;;;;;;;6.70;3.33;;;12.70;99.90;;;;;;4965724;28;20203;-64
2022/06/21 00:38:16;;;;;;;5.20;2.90;;;12.70;99.90;;;;;;4951160;28;20603;-65
2022/06/21 00:40:42;;;;;;;5.93;3.20;;;12.70;99.90;;;;;;4966340;28;20253;-65
2022/06/21 00:43:20;;;;;;;3.33;3.13;;;12.70;99.90;;;;;;4963790;28;20230;-65
2022/06/21 00:45:48;;;;;;;6.60;4.67;;;12.70;99.90;;;;;;4965556;28;20196;-65
2022/06/21 00:48:29;;;;;;;4.03;2.80;;;12.70;99.90;;;;;;4963858;28;20206;-65
2022/06/21 00:51:00;;;;;;;5.63;4.00;;;12.70;99.90;;;;;;4966126;28;20237;-65
2022/06/21 00:53:55;;;;;;;4.93;3.53;;;12.60;99.90;;;;;;4952680;28;20314;-65
2022/06/21 00:56:31;;;;;;;5.97;4.13;;;12.50;99.90;;;;;;4949697;28;20200;-65
2022/06/21 00:58:56;;;;;;;3.93;3.13;;;12.40;99.90;;;;;;4964906;28;20231;-65
2022/06/21 01:01:26;;;;;;;6.00;3.17;;;12.40;99.90;;;;;;4966480;28;20613;-65
2022/06/21 01:03:58;;;;;;;5.33;3.93;;;12.40;99.90;;;;;;4964712;28;20209;-64
2022/06/21 01:06:34;;;;;;;6.47;3.80;;;12.30;99.90;;;;;;4966573;28;20192;-65
2022/06/21 01:09:14;;;;;;;4.87;4.30;;;12.20;99.90;;;;;;4957517;28;20655;-64
2022/06/21 01:11:46;;;;;;;3.47;3.17;;;12.00;99.90;;;;;;4962026;28;20347;-64
2022/06/21 01:14:14;;;;;;;4.10;3.17;;;12.10;99.90;;;;;;4964681;28;20220;-65
2022/06/21 01:16:40;;;;;;;5.10;3.60;;;12.10;99.90;;;;;;4963075;28;20560;-65
2022/06/21 01:19:17;;;;;;;7.13;4.50;;;12.00;99.90;;;;;;4958139;28;20679;-65
2022/06/21 01:21:47;;;;;;;5.13;4.33;;;12.00;99.90;;;;;;4966983;28;20193;-65
2022/06/21 01:24:20;;;;;;;6.87;3.43;;;12.00;99.90;;;;;;4965038;28;20215;-65
2022/06/21 01:26:57;;;;;;;5.30;3.57;;;12.00;99.90;;;;;;4947449;29;20271;-64
2022/06/21 01:29:33;;;;;;;3.47;2.73;;;12.20;99.90;;;;;;4954703;28;20221;-65
2022/06/21 01:32:04;;;;;;;5.83;3.43;;;12.20;99.90;;;;;;4955359;28;20197;-65
2022/06/21 01:34:30;;;;;;;4.73;3.50;;;12.20;99.90;;;;;;4964564;28;20275;-65
2022/06/21 01:37:08;;;;;;;4.33;3.53;;;12.10;99.90;;;;;;4966404;28;20194;-65
2022/06/21 01:39:41;;;;;;;7.00;3.83;;;12.30;99.90;;;;;;4962739;28;20217;-65
2022/06/21 01:42:09;;;;;;;4.27;3.33;;;12.20;99.90;;;;;;4947221;29;20203;-65
2022/06/21 01:44:42;;;;;;;5.67;3.47;;;12.30;99.90;;;;;;4964220;28;20208;-65
2022/06/21 01:47:13;;;;;;;4.77;4.00;;;12.40;99.90;;;;;;4966030;28;20297;-65
2022/06/21 01:49:45;;;;;;;4.83;3.23;;;12.30;99.90;;;;;;4962043;28;20331;-65
2022/06/21 01:52:16;;;;;;;5.40;3.27;;;12.40;99.90;;;;;;4947019;29;20204;-65
2022/06/21 01:54:46;;;;;;;6.37;3.53;;;12.30;99.90;;;;;;4964273;28;20296;-64
2022/06/21 01:57:13;;;;;;;7.33;3.97;;;12.30;99.90;;;;;;4965871;28;20205;-65
2022/06/21 01:59:43;;;;;;;5.40;3.73;;;12.30;99.90;;;;;;4963982;28;20218;-65
2022/06/21 02:02:13;;;;;;;9.27;4.50;;;12.20;99.90;;;;;;4965347;28;20236;-65
2022/06/21 02:04:52;;;;;;;5.63;5.13;;;12.30;99.90;;;;;;4964062;28;20310;-64
2022/06/21 02:07:22;;;;;;;6.67;3.90;;;12.20;99.90;;;;;;4954218;28;20290;-65
2022/06/21 02:10:07;;;;;;;6.03;4.27;;;12.20;99.90;;;;;;4963822;28;20219;-65
2022/06/21 02:12:34;;;;;;;5.10;4.03;;;12.20;99.90;;;;;;4951074;28;20220;-65
2022/06/21 02:15:05;;;;;;;6.40;3.40;;;12.20;99.90;;;;;;4965932;28;20698;-65
2022/06/21 02:17:34;;;;;;;5.93;3.87;;;12.20;99.90;;;;;;4946275;28;20247;-65
2022/06/21 02:20:20;;;;;;;6.77;3.80;;;12.10;99.90;;;;;;4963994;28;20241;-65
2022/06/21 02:22:47;;;;;;;5.63;3.13;;;12.10;99.90;;;;;;4956265;28;20598;-65
2022/06/21 02:25:18;;;;;;;4.33;3.70;;;12.20;99.90;;;;;;4965832;28;20281;-65
2022/06/21 02:27:44;;;;;;;5.27;3.13;;;12.20;99.90;;;;;;4963739;28;20633;-65
2022/06/21 02:30:29;;;;;;;4.07;3.60;;;12.10;99.90;;;;;;4965453;28;20194;-65
2022/06/21 02:32:57;;;;;;;6.00;3.57;;;12.10;99.90;;;;;;4962878;28;20211;-65
2022/06/21 02:35:40;;;;;;;7.43;3.97;;;12.10;99.90;;;;;;4965748;28;20216;-66
2022/06/21 02:38:14;;;;;;;6.87;3.93;;;12.00;99.90;;;;;;4961385;28;20228;-65
2022/06/21 02:40:44;;;;;;;4.93;3.60;;;12.00;99.90;;;;;;4965623;28;20270;-65
2022/06/21 02:43:14;;;;;;;4.30;3.43;;;12.00;99.90;;;;;;4964072;28;20288;-65
2022/06/21 02:45:49;;;;;;;4.13;3.70;;;12.00;99.90;;;;;;4965607;28;20237;-65
2022/06/21 02:48:26;;;;;;;4.00;3.57;;;12.00;99.90;;;;;;4956484;28;20223;-65
2022/06/21 02:51:01;;;;;;;6.17;3.80;;;12.00;99.90;;;;;;4965683;28;20185;-65
2022/06/21 02:53:37;;;;;;;6.43;3.80;;;12.00;99.90;;;;;;4951868;28;20700;-65
2022/06/21 02:56:13;;;;;;;4.73;3.13;;;12.00;99.90;;;;;;4962309;28;20606;-65
2022/06/21 02:58:47;;;;;;;5.37;4.10;;;11.90;99.90;;;;;;4955829;28;20264;-65
2022/06/21 03:01:34;;;;;;;7.30;3.47;;;11.90;99.90;;;;;;4962614;28;20234;-65
2022/06/21 03:04:00;;;;;;;6.90;4.27;;;11.90;99.90;;;;;;4956045;28;20203;-65
2022/06/21 03:06:27;;;;;;;7.07;3.90;;;11.90;99.90;;;;;;4965384;28;20181;-65
2022/06/21 03:09:03;;;;;;;6.73;3.83;;;11.80;99.90;;;;;;4966374;28;20203;-65
2022/06/21 03:11:34;;;;;;;4.80;3.83;;;11.80;99.90;;;;;;4962439;28;20201;-65
2022/06/21 03:14:03;;;;;;;8.77;4.70;;;11.90;99.90;;;;;;4965142;28;20236;-65
2022/06/21 03:16:29;;;;;;;8.77;5.23;;;11.90;99.90;;;;;;4968418;28;20654;-65
2022/06/21 03:19:00;;;;;;;5.53;4.47;;;11.90;99.90;;;;;;4967340;28;20295;-65
2022/06/21 03:21:29;;;;;;;7.43;5.77;;;11.90;99.90;;;;;;4950011;28;20275;-66
2022/06/21 03:23:57;;;;;;;7.17;4.57;;;11.90;99.90;;;;;;4966969;28;20667;-65
2022/06/21 03:26:23;;;;;;;7.23;4.90;;;11.80;99.90;;;;;;4968320;28;20816;-64
2022/06/21 03:28:52;;;;;;;11.07;6.23;;;11.80;99.90;;;;;;4966641;28;20212;-64
2022/06/21 03:31:24;;;;;;;7.80;5.07;;;11.80;99.90;;;;;;4968546;28;20207;-64
2022/06/21 03:33:54;;;;;;;13.57;6.30;;;11.90;99.90;;;;;;4969155;28;20314;-62
2022/06/21 03:36:23;;;;;;;7.80;4.60;;;11.80;99.90;;;;;;4967639;28;20360;-63
2022/06/21 03:38:53;;;;;;;9.47;5.00;;;11.80;99.90;;;;;;4966698;28;20220;-63
2022/06/21 03:44:37;;;;;;;5.97;4.20;;;11.90;99.90;;;;;;4965608;28;20294;-63
2022/06/21 03:47:09;;;;;;;8.00;5.50;;;11.90;99.90;;;;;;4949133;28;20296;-64
2022/06/21 03:49:55;;;;;;;9.00;7.17;;;11.80;99.90;;;;;;4968096;28;20323;-63
2022/06/21 03:52:41;;;;;;;9.83;4.97;;;11.80;99.90;;;;;;4962686;28;20243;-63
2022/06/21 03:55:19;;;;;;;8.20;5.07;;;11.90;99.90;;;;;;4968084;28;20193;-62
2022/06/21 03:57:53;;;;;;;6.03;4.70;;;12.00;99.90;;;;;;4966027;28;20260;-63
2022/06/21 04:00:19;;;;;;;8.90;4.20;;;11.90;99.90;;;;;;4967701;28;20245;-64
2022/06/21 04:02:53;;;;;;;9.47;4.53;;;12.00;99.90;;;;;;4954132;28;20274;-64
2022/06/21 04:05:25;;;;;;;6.97;4.70;;;12.00;99.90;;;;;;4968360;28;20199;-64
2022/06/21 04:08:03;;;;;;;5.67;2.47;;;12.10;99.90;;;;;;4955210;28;20209;-65
2022/06/21 04:10:43;;;;;;;4.73;3.33;;;12.20;99.90;;;;;;4952326;28;20278;-64
2022/06/21 04:13:19;;;;;;;4.67;3.43;;;12.20;99.90;;;;;;4957699;28;20227;-64
2022/06/21 04:15:51;;;;;;;7.80;4.97;;;12.30;99.90;;;;;;4948500;29;20303;-65
2022/06/21 04:18:25;;;;;;;11.83;5.53;;;12.30;99.90;;;;;;4961766;28;20215;-64
2022/06/21 04:21:04;;;;;;;6.50;3.90;;;12.40;99.90;;;;;;4960278;28;20206;-64
2022/06/21 04:23:51;;;;;;;7.17;3.93;;;12.40;99.90;;;;;;4960106;28;20207;-64
2022/06/21 04:26:26;;;;;;;8.60;3.90;;;12.50;99.90;;;;;;4948435;29;20194;-64
2022/06/21 04:29:04;;;;;;;7.57;3.53;;;12.60;99.90;;;;;;4962954;28;20201;-64
2022/06/21 04:31:51;;;;;;;5.57;4.03;;;12.60;99.90;;;;;;4953139;28;20562;-64
2022/06/21 04:34:26;;;;;;;14.50;4.93;;;12.60;99.90;;;;;;4963684;28;20210;-64
2022/06/21 04:37:00;;;;;;;9.20;4.50;;;12.70;99.90;;;;;;4965774;28;20223;-64
2022/06/21 04:39:38;;;;;;;4.20;3.20;;;12.80;99.90;;;;;;4967132;28;20208;-64
2022/06/21 04:42:11;;;;;;;6.90;4.40;;;12.90;99.90;;;;;;4948079;28;20202;-64
2022/06/21 04:44:57;;;;;;;12.33;4.70;;;12.90;99.90;;;;;;4967225;28;20294;-64
2022/06/21 04:47:31;;;;;;;6.23;4.50;;;12.90;99.90;;;;;;4962829;28;20278;-64
2022/06/21 04:50:11;;;;;;;9.53;4.60;;;13.00;99.90;;;;;;4967483;28;20191;-64
2022/06/21 04:52:46;;;;;;;5.53;3.03;;;13.10;99.90;;;;;;4965278;28;20227;-64
2022/06/21 04:55:16;;;;;;;7.23;4.57;;;13.20;99.90;;;;;;4967484;28;20201;-64
2022/06/21 04:57:43;;;;;;;6.77;4.17;;;13.20;99.90;;;;;;4965451;28;20209;-64
2022/06/21 05:00:20;;;;;;;6.03;4.13;;;13.10;99.90;;;;;;4966915;28;20335;-64
2022/06/21 05:02:51;;;;;;;9.03;4.37;;;13.10;99.90;;;;;;4953368;28;20288;-64
2022/06/21 05:05:26;;;;;;;7.07;4.33;;;13.10;99.90;;;;;;4966822;28;20640;-64
2022/06/21 05:08:02;;;;;;;5.43;4.17;;;13.20;99.90;;;;;;4953873;28;20289;-65
2022/06/21 05:10:33;;;;;;;8.53;3.70;;;13.30;99.90;;;;;;4966453;28;20209;-64
2022/06/21 05:13:03;;;;;;;4.57;3.83;;;13.30;99.90;;;;;;4954864;28;20221;-64
2022/06/21 05:15:33;;;;;;;6.77;4.40;;;13.40;99.90;;;;;;4966175;28;20213;-65
2022/06/21 05:18:04;;;;;;;6.63;3.90;;;13.40;99.90;;;;;;4964224;28;20239;-64
2022/06/21 05:20:34;;;;;;;8.63;4.40;;;13.50;99.90;;;;;;4947163;29;20236;-64
2022/06/21 05:23:04;;;;;;;9.47;4.00;;;13.60;99.90;;;;;;4964510;28;20205;-65
2022/06/21 05:25:37;;;;;;;4.73;3.63;;;13.60;99.90;;;;;;4966131;28;20537;-64
2022/06/21 05:28:19;;;;;;;7.97;3.97;;;13.60;99.90;;;;;;4963707;28;20551;-64
2022/06/21 05:31:10;;;;;;;9.33;3.53;;;13.70;99.90;;;;;;4965912;28;20577;-65
2022/06/21 05:33:50;;;;;;;6.90;3.53;;;13.80;99.90;;;;;;4959621;28;20259;-65
2022/06/21 05:36:31;;;;;;;7.00;4.53;;;13.80;99.90;;;;;;4957959;28;20225;-64
2022/06/21 05:39:04;;;;;;;4.97;3.57;;;13.80;99.90;;;;;;4961927;28;20217;-64
2022/06/21 05:41:38;;;;;;;6.20;3.20;;;13.80;99.90;;;;;;4964409;28;20264;-64
2022/06/21 05:44:18;;;;;;;3.97;3.43;;;13.80;99.90;;;;;;4957613;28;20236;-65
2022/06/21 05:46:48;;;;;;;3.77;3.03;;;13.80;99.90;;;;;;4953781;28;20198;-64
2022/06/21 05:49:30;;;;;;;5.13;3.10;;;13.80;99.90;;;;;;4965615;28;20217;-63
2022/06/21 05:52:00;;;;;;;3.93;3.57;;;13.80;99.90;;;;;;4964046;28;20236;-64
2022/06/21 05:54:34;;;;;;;7.57;3.60;;;13.90;99.90;;;;;;4965755;28;20197;-65
2022/06/21 05:57:02;;;;;;;4.37;3.47;;;14.00;99.90;;;;;;4950248;28;20200;-64
2022/06/21 05:59:28;;;;;;;5.43;3.40;;;14.20;99.90;;;;;;4965877;28;20284;-64
2022/06/21 06:02:01;;;;;;;7.83;3.60;;;14.30;99.90;;;;;;4963774;28;20768;-64
2022/06/21 06:04:58;;;;;;;7.03;2.70;;;14.30;99.90;;;;;;4964963;28;20189;-65
2022/06/21 06:07:35;;;;;;;4.80;2.77;;;14.40;99.90;;;;;;4950765;28;20194;-65
2022/06/21 06:10:03;;;;;;;8.17;2.47;;;14.40;99.90;;;;;;4965916;28;20297;-62
2022/06/21 06:12:34;;;;;;;2.90;2.27;;;14.50;99.90;;;;;;4963087;28;20236;-64
2022/06/21 06:15:16;;;;;;;5.47;2.90;;;14.50;99.90;;;;;;4965959;28;20173;-65
2022/06/21 06:18:31;;;;;;;3.23;2.70;;;14.40;99.90;;;;;;4947070;28;20201;-65
2022/06/21 06:21:06;;;;;;;5.83;3.37;;;14.30;99.90;;;;;;4956194;28;20221;-65
2022/06/21 06:23:38;;;;;;;12.33;3.77;;;14.40;99.90;;;;;;4954057;28;20223;-65
2022/06/21 06:26:15;;;;;;;6.03;2.97;;;14.50;99.90;;;;;;4946416;29;20197;-65
2022/06/21 06:29:00;;;;;;;4.93;2.67;;;14.60;99.90;;;;;;4962907;28;20241;-65
2022/06/21 06:31:36;;;;;;;6.10;3.13;;;14.60;99.90;;;;;;4962331;28;20664;-65
2022/06/21 06:34:06;;;;;;;6.07;3.07;;;14.60;99.90;;;;;;4945999;28;20198;-65
2022/06/21 06:36:37;;;;;;;9.47;2.57;;;14.70;99.90;;;;;;4965444;28;20193;-65
2022/06/21 06:39:13;;;;;;;4.60;2.43;;;14.70;99.90;;;;;;4957968;28;20595;-65
2022/06/21 06:41:57;;;;;;;10.70;3.37;;;14.70;99.90;;;;;;4946325;28;20205;-65
2022/06/21 06:44:28;;;;;;;6.17;2.13;;;14.90;99.90;;;;;;4964781;28;20213;-65
2022/06/21 06:46:55;;;;;;;4.23;2.30;;;15.00;99.90;;;;;;4950214;29;20194;-65
2022/06/21 06:49:51;;;;;;;4.93;2.40;;;14.90;99.90;;;;;;4966911;28;20209;-65
2022/06/21 06:52:50;;;;;;;9.23;3.17;;;15.00;99.90;;;;;;4968351;28;20201;-65
2022/06/21 06:55:35;;;;;;;6.57;2.73;;;15.00;99.90;;;;;;4969491;28;20565;-65
2022/06/21 06:58:20;;;;;;;9.63;2.77;;;15.00;99.90;;;;;;4965250;28;20205;-65
2022/06/21 07:00:55;;;;;;;11.67;3.43;;;15.10;99.90;;;;;;4960694;28;20252;-65
2022/06/21 07:03:25;;;;;;;4.57;2.43;;;15.10;99.90;;;;;;4967531;28;20400;-64
2022/06/21 07:06:07;;;;;;;7.20;2.30;;;15.20;99.90;;;;;;4969343;28;20189;-64
2022/06/21 07:08:43;;;;;;;6.07;2.37;;;15.20;99.90;;;;;;4961211;28;20204;-64
2022/06/21 07:11:16;;;;;;;9.13;2.87;;;15.40;99.90;;;;;;4950806;28;20201;-64
2022/06/21 07:13:42;;;;;;;2.10;1.87;;;15.50;99.90;;;;;;4958771;28;20237;-64
2022/06/21 07:16:14;;;;;;;9.50;2.50;;;15.60;99.90;;;;;;4968176;28;20280;-63
2022/06/21 07:19:00;;;;;;;2.20;1.63;;;15.60;99.90;;;;;;4967116;28;20257;-63
2022/06/21 07:21:26;;;;;;;3.40;1.83;;;15.80;99.90;;;;;;4968930;28;20186;-63
2022/06/21 07:23:54;;;;;;;3.77;2.00;;;16.00;99.90;;;;;;4967122;28;20533;-64
2022/06/21 07:26:27;;;;;;;2.53;2.00;;;16.00;99.90;;;;;;4968742;28;20194;-64
2022/06/21 07:29:01;;;;;;;4.67;2.43;;;16.00;99.90;;;;;;4967311;28;20198;-64
2022/06/21 07:31:48;;;;;;;6.27;1.70;;;16.10;99.90;;;;;;4965943;28;20215;-64
2022/06/21 07:34:23;;;;;;;6.83;2.17;;;16.20;99.90;;;;;;4957636;28;20204;-64
2022/06/21 07:36:58;;;;;;;3.93;1.73;;;16.20;99.90;;;;;;4956889;28;20193;-64
2022/06/21 07:39:30;;;;;;;5.27;1.83;;;16.40;99.90;;;;;;4966533;28;20220;-64
2022/06/21 07:42:05;;;;;;;4.23;2.00;;;16.30;99.90;;;;;;4968977;28;20198;-64
2022/06/21 07:44:39;;;;;;;6.30;2.07;;;16.40;99.90;;;;;;4966283;28;20202;-63
2022/06/21 07:47:15;;;;;;;5.40;1.77;;;16.40;99.90;;;;;;4949484;29;20210;-64
2022/06/21 07:49:51;;;;;;;4.90;1.50;;;16.60;99.90;;;;;;4961667;28;20751;-65
2022/06/21 07:52:31;;;;;;;3.80;2.60;;;16.60;99.90;;;;;;4968701;28;20212;-64
2022/06/21 07:55:25;;;;;;;7.20;2.10;;;16.70;99.90;;;;;;4958985;28;20232;-64
2022/06/21 07:57:57;;;;;;;4.17;2.27;;;16.80;99.90;;;;;;4965994;28;20285;-64
2022/06/21 08:00:24;;;;;;;4.77;1.50;;;16.90;99.90;;;;;;4962296;28;20225;-64
2022/06/21 08:08:58;;;;;;;9.10;2.20;;;17.00;99.40;;;;;;4966640;28;20247;-64
2022/06/21 08:11:33;;;;;;;2.47;1.30;;;17.20;99.00;;;;;;4968262;28;20197;-63
2022/06/21 08:13:58;;;;;;;5.50;1.50;;;17.40;98.70;;;;;;4951240;28;20204;-64
2022/06/21 08:16:33;;;;;;;3.63;2.17;;;17.50;97.60;;;;;;4967905;28;20191;-64
2022/06/21 08:19:14;;;;;;;1.87;1.30;;;17.50;97.70;;;;;;4966411;28;20252;-64
2022/06/21 08:21:46;;;;;;;3.57;1.30;;;17.60;96.80;;;;;;4968233;28;20224;-64
2022/06/21 08:24:50;;;;;;;3.63;1.63;;;17.80;96.60;;;;;;4966423;28;20219;-64
2022/06/21 08:27:22;;;;;;;2.53;1.30;;;17.90;96.20;;;;;;4968202;28;20221;-64
2022/06/21 08:29:55;;;;;;;3.00;1.30;;;17.90;96.30;;;;;;4965916;28;20206;-63
2022/06/21 08:32:31;;;;;;;2.00;1.23;;;18.00;95.70;;;;;;4948767;29;20198;-63
2022/06/21 08:35:03;;;;;;;3.93;1.63;;;18.10;95.10;;;;;;4959236;28;20905;-63
2022/06/21 08:37:55;;;;;;;6.90;1.50;;;18.20;95.60;;;;;;4947864;29;20196;-64
2022/06/21 08:40:29;;;;;;;5.63;2.10;;;18.30;94.30;;;;;;4961673;28;20229;-63
2022/06/21 08:43:13;;;;;;;5.57;1.40;;;18.10;93.80;;;;;;4948524;29;20552;-64
2022/06/21 08:45:41;;;;;;;2.47;1.30;;;18.10;94.50;;;;;;4965870;28;20619;-63
2022/06/21 08:48:25;;;;;;;5.80;1.20;;;18.30;94.30;;;;;;4967044;28;20307;-64
2022/06/21 08:51:18;;;;;;;1.87;1.20;;;18.30;94.70;;;;;;4965048;28;20205;-64
2022/06/21 08:54:09;;;;;;;5.20;1.70;;;18.40;94.40;;;;;;4953220;28;20236;-63
2022/06/21 08:56:51;;;;;;;1.67;1.00;;;18.50;94.10;;;;;;4967552;28;20197;-64
2022/06/21 08:59:33;;;;;;;3.70;1.53;;;18.60;94.70;;;;;;4965545;28;20215;-64
2022/06/21 09:02:25;;;;;;;1.67;1.00;;;18.50;95.00;;;;;;4967260;28;20340;-64
2022/06/21 09:05:22;;;;;;;7.40;1.60;;;18.60;94.70;;;;;;4956548;28;20217;-64
2022/06/21 09:08:14;;;;;;;3.53;1.23;;;18.80;94.40;;;;;;4959773;28;20223;-64
2022/06/21 09:10:56;;;;;;;3.73;1.10;;;19.00;93.40;;;;;;4965731;28;20200;-64
2022/06/21 09:13:44;;;;;;;1.50;1.37;;;19.10;92.30;;;;;;4948203;29;20540;-63
2022/06/21 09:16:44;;;;;;;2.43;1.23;;;19.10;92.90;;;;;;4966528;28;20271;-63
2022/06/21 09:19:48;;;;;;;3.90;1.40;;;19.20;92.80;;;;;;4960722;28;20224;-63
2022/06/21 09:22:31;;;;;;;4.50;1.23;;;19.30;93.20;;;;;;4966829;28;20210;-64
2022/06/21 09:25:10;;;;;;;5.07;1.77;;;19.30;91.40;;;;;;4957104;28;20944;-64
2022/06/21 09:27:43;;;;;;;7.83;2.60;;;19.40;92.30;;;;;;4953221;28;20213;-63
2022/06/21 09:30:25;;;;;;;4.17;1.37;;;19.40;91.90;;;;;;4964889;28;20212;-66
2022/06/21 09:33:20;;;;;;;3.03;1.10;;;19.40;93.00;;;;;;4947219;29;20205;-64
2022/06/21 09:35:53;;;;;;;3.47;1.57;;;19.70;91.80;;;;;;4963660;28;20627;-63
2022/06/21 09:38:48;;;;;;;2.80;2.00;;;19.80;90.80;;;;;;4947834;29;20200;-64
2022/06/21 09:41:42;;;;;;;2.67;1.43;;;19.80;91.50;;;;;;4958304;28;20283;-64
2022/06/21 09:44:41;;;;;;;2.67;1.30;;;19.90;90.10;;;;;;4955608;28;20280;-64
2022/06/21 09:47:41;;;;;;;5.33;1.60;;;19.90;90.70;;;;;;4964736;28;20247;-64
2022/06/21 09:50:34;;;;;;;4.77;1.30;;;20.00;88.40;;;;;;4957976;28;20277;-63
2022/06/21 09:53:09;;;;;;;4.53;1.20;;;20.00;86.90;;;;;;4965487;28;20595;-63
2022/06/21 09:55:47;;;;;;;1.97;0.97;;;20.10;88.30;;;;;;4962179;28;20236;-64
2022/06/21 09:58:27;;;;;;;3.43;1.30;;;20.10;84.10;;;;;;4947125;29;20655;-64
2022/06/21 10:01:09;;;;;;;2.23;1.10;;;20.00;85.30;;;;;;4963864;28;20247;-64
2022/06/21 10:03:45;;;;;;;3.30;1.30;;;20.10;87.00;;;;;;4964280;28;20188;-64
2022/06/21 10:06:22;;;;;;;2.43;1.90;;;20.50;86.60;;;;;;4965572;28;20188;-64
2022/06/21 10:09:21;;;;;;;3.53;1.53;;;20.50;89.10;;;;;;4947263;28;20192;-64
2022/06/21 10:12:03;;;;;;;3.90;1.67;;;20.70;87.50;;;;;;4965579;28;20243;-64
2022/06/21 10:14:47;;;;;;;4.13;1.50;;;20.70;89.10;;;;;;4958152;28;20316;-64
2022/06/21 10:17:41;;;;;;;2.23;1.07;;;20.80;87.00;;;;;;4955226;28;20206;-64
2022/06/21 10:20:40;;;;;;;1.77;0.60;;;20.90;82.70;;;;;;4957854;28;20264;-64
2022/06/21 10:23:43;;;;;;;1.47;0.80;;;20.80;83.10;;;;;;4956412;28;20544;-64
2022/06/21 10:26:28;;;;;;;5.73;1.57;;;20.90;85.30;;;;;;4954094;28;20724;-64
2022/06/21 10:29:25;;;;;;;2.53;1.50;;;21.10;82.90;;;;;;4960834;28;20200;-63
2022/06/21 10:32:13;;;;;;;4.97;1.63;;;21.40;82.10;;;;;;4964770;28;20647;-64
2022/06/21 10:34:55;;;;;;;4.47;1.70;;;21.40;79.90;;;;;;4954236;28;20232;-64
2022/06/21 10:37:48;;;;;;;4.10;1.23;;;21.50;80.90;;;;;;4962926;28;20742;-64
2022/06/21 10:40:33;;;;;;;3.30;1.10;;;21.60;80.00;;;;;;4958852;28;20215;-64
2022/06/21 10:43:24;;;;;;;2.97;1.27;;;21.40;77.80;;;;;;4946892;29;20199;-64
2022/06/21 10:46:00;;;;;;;3.20;1.37;;;21.50;80.30;;;;;;4963074;28;20201;-63
2022/06/21 10:49:04;;;;;;;4.03;1.20;;;21.60;79.90;;;;;;4965306;28;20244;-64
2022/06/21 10:52:02;;;;;;;5.47;1.70;;;21.40;76.50;;;;;;4940929;28;20181;-66
2022/06/21 10:54:42;;;;;;;4.60;1.70;;;21.50;77.00;;;;;;4965884;28;20261;-64
2022/06/21 10:57:12;;;;;;;4.53;1.57;;;21.60;74.80;;;;;;4972443;28;20190;-63
2022/06/21 11:02:46;;;;;;;3.17;1.63;;;21.90;74.50;;;;;;4978408;28;20236;-74
2022/06/21 11:05:29;;;;;;;3.03;0.90;;;22.50;74.90;;;;;;4965407;28;20273;-73
2022/06/21 11:08:20;;;;;;;3.47;1.60;;;23.70;71.30;;;;;;4946719;29;20226;-73
2022/06/21 11:10:59;;;;;;;2.83;1.35;;;24.90;67.60;;;;;;4962846;28;20206;-71
2022/06/21 11:13:34;;;;;;;6.18;3.72;;;26.00;64.30;;;;;;4955072;28;20764;-61
2022/06/21 11:16:09;;;;;;;1.92;1.25;;;27.20;63.40;;;;;;4966002;28;20184;-61
2022/06/21 11:18:47;;;;;;;1.25;0.90;;;28.30;55.40;;;;;;4949901;28;20196;-60
2022/06/21 11:21:43;;;;;;;3.10;1.00;;;29.10;54.10;;;;;;4968829;28;20277;-60
2022/06/21 11:24:14;;;;;;;4.22;1.25;;;29.30;47.80;;;;;;4965814;28;20209;-60
2022/06/21 11:27:13;;;;;;;1.98;0.82;;;29.30;47.70;;;;;;4964530;28;20229;-60
2022/06/21 11:29:47;;;;;;;1.90;0.80;;;29.50;45.20;;;;;;4964743;28;20207;-58
2022/06/21 11:32:24;;;;;;;4.30;1.45;;;30.20;44.30;;;;;;4967558;28;20193;-59
2022/06/21 11:35:05;;;;;;;2.85;1.10;;;30.60;44.10;;;;;;4974644;28;20200;-60
2022/06/21 11:37:59;;;;;;;3.50;1.20;;;29.80;44.00;;;;;;4978084;28;20184;-60
2022/06/21 11:40:58;;;;;;;1.55;0.90;;;29.60;43.50;;;;;;4972107;28;20222;-60
2022/06/21 11:43:48;;;;;;;3.88;1.55;;;30.00;44.80;;;;;;4975577;28;20181;-61
2022/06/21 11:46:22;;;;;;;4.28;1.35;;;31.20;42.20;;;;;;4976883;28;20181;-59
2022/06/21 11:49:06;;;;;;;1.98;1.08;;;32.10;41.00;;;;;;4974948;28;20283;-59
2022/06/21 11:51:40;;;;;;;2.58;1.02;;;33.10;40.60;;;;;;4958820;28;20708;-60
2022/06/21 11:54:17;;;;;;;6.80;0.90;;;34.20;36.90;;;;;;4970969;28;20837;-61
2022/06/21 11:57:00;;;;;;;4.70;1.20;;;34.60;36.60;;;;;;4965160;28;20189;-60
2022/06/21 11:59:41;;;;;;;1.98;1.17;;;34.60;34.50;;;;;;4964124;28;20213;-61
2022/06/21 12:02:14;;;;;;;2.60;1.10;;;34.60;35.60;;;;;;4950259;28;20221;-60
2022/06/21 12:04:54;;;;;;;1.73;1.15;;;34.80;34.40;;;;;;4965333;28;20572;-60
2022/06/21 12:07:46;;;;;;;4.90;1.58;;;34.40;33.80;;;;;;4967066;28;20640;-60
2022/06/21 12:10:20;;;;;;;1.73;0.70;;;34.20;33.50;;;;;;4959380;28;20652;-60
2022/06/21 12:13:05;;;;;;;2.28;1.60;;;33.00;33.60;;;;;;4965280;28;20178;-60
2022/06/21 12:15:44;;;;;;;2.20;0.90;;;32.70;35.10;;;;;;4962235;28;20549;-60
2022/06/21 12:18:14;;;;;;;1.63;0.98;;;33.70;35.20;;;;;;4965143;28;20630;-60
2022/06/21 12:20:47;;;;;;;3.58;1.45;;;35.00;32.20;;;;;;4965056;28;20233;-60
2022/06/21 12:23:18;;;;;;;3.03;1.70;;;35.40;30.80;;;;;;4966854;28;20253;-60
2022/06/21 12:25:46;;;;;;;3.00;1.10;;;34.80;30.90;;;;;;4966160;28;20209;-60
2022/06/21 12:28:14;;;;;;;2.30;1.20;;;35.00;31.00;;;;;;4967766;28;20204;-61
2022/06/21 12:30:40;;;;;;;1.95;1.10;;;35.10;31.60;;;;;;4966065;28;20197;-60
2022/06/21 12:33:09;;;;;;;2.78;1.17;;;34.60;31.50;;;;;;4968022;28;20190;-61
2022/06/21 12:36:14;;;;;;;1.80;1.10;;;34.30;34.00;;;;;;4965007;28;20240;-59
2022/06/21 12:38:52;;;;;;;2.90;1.33;;;35.00;32.50;;;;;;4948190;28;20194;-61
2022/06/21 12:41:21;;;;;;;1.70;1.00;;;35.90;31.80;;;;;;4965700;28;20192;-60
2022/06/21 12:44:20;;;;;;;1.35;1.05;;;36.60;30.70;;;;;;4964233;28;20282;-59
2022/06/21 12:47:21;;;;;;;3.70;1.38;;;37.00;30.10;;;;;;4965587;28;20306;-61
2022/06/21 12:50:16;;;;;;;1.55;1.10;;;36.90;29.70;;;;;;4964142;28;20573;-61
2022/06/21 12:52:58;;;;;;;3.90;1.30;;;35.60;32.50;;;;;;4966147;28;20185;-61
2022/06/21 12:55:43;;;;;;;0.95;0.75;;;34.20;32.00;;;;;;4962361;28;20209;-60
2022/06/21 12:58:36;;;;;;;3.75;1.10;;;32.20;31.90;;;;;;4963572;28;20189;-61
2022/06/21 13:01:10;;;;;;;3.17;1.45;;;31.40;32.70;;;;;;4966457;28;20577;-60
2022/06/21 13:03:40;;;;;;;2.20;1.15;;;31.90;34.10;;;;;;4965821;28;20191;-60
2022/06/21 13:06:30;;;;;;;1.95;1.00;;;33.00;33.40;;;;;;4967492;28;20339;-61
2022/06/21 13:09:20;;;;;;;4.93;1.08;;;34.30;31.60;;;;;;4949421;28;20198;-61
2022/06/21 13:12:05;;;;;;;2.35;1.25;;;35.30;31.10;;;;;;4966819;28;20656;-61
2022/06/21 13:14:55;;;;;;;1.23;1.08;;;36.30;30.20;;;;;;4954255;28;20206;-71
2022/06/21 13:17:42;;;;;;;1.30;1.17;;;36.10;30.00;;;;;;4958041;28;20498;-61
2022/06/21 13:20:29;;;;;;;4.20;1.25;;;35.40;29.90;;;;;;4958945;28;20583;-61
2022/06/21 13:23:03;;;;;;;1.40;1.17;;;33.50;31.30;;;;;;4955056;28;20192;-61
2022/06/21 13:25:40;;;;;;;2.45;1.27;;;33.10;32.50;;;;;;4961469;28;20198;-59
2022/06/21 13:28:36;;;;;;;3.33;1.30;;;33.50;33.00;;;;;;4958705;28;20211;-61
2022/06/21 13:31:25;;;;;;;1.15;1.05;;;33.70;31.30;;;;;;4960827;28;20193;-62
2022/06/21 13:34:05;;;;;;;0.85;0.80;;;34.10;30.70;;;;;;4955386;28;20201;-61
2022/06/21 13:36:43;;;;;;;3.20;1.67;;;33.90;30.50;;;;;;4964314;28;20283;-61
2022/06/21 13:39:31;;;;;;;4.88;1.85;;;34.00;33.70;;;;;;4965682;28;20189;-61
2022/06/21 13:45:16;;;;;;;3.08;1.02;;;34.50;32.00;;;;;;4957296;28;20787;-61
2022/06/21 13:47:54;;;;;;;1.85;1.30;;;33.80;31.40;;;;;;4963702;28;20206;-61
2022/06/21 13:50:41;;;;;;;2.53;1.58;;;33.60;31.80;;;;;;4965893;28;20197;-60
2022/06/21 13:53:37;;;;;;;1.67;1.20;;;32.10;31.70;;;;;;4958761;28;20818;-61
2022/06/21 13:56:14;;;;;;;1.90;0.95;;;31.60;32.70;;;;;;4964633;28;20193;-61